createdAt,value
2018-11-26T00:00:26.794Z,6.07
2018-11-26T00:02:55.418Z,6.11
2018-11-26T00:05:23.899Z,6.13
2018-11-26T00:07:52.327Z,6.15
2018-11-26T00:10:31.998Z,6.16
2018-11-26T00:13:00.544Z,5.89
2018-11-26T00:15:29.242Z,6.14
2018-11-26T00:17:58.035Z,6.12
2018-11-26T00:20:26.180Z,5.83
2018-11-26T00:22:54.472Z,6.06
2018-11-26T00:25:23.359Z,6.06
2018-11-26T00:27:52.346Z,6.03
2018-11-26T00:30:20.492Z,5.62
2018-11-26T00:32:49.406Z,6.00
2018-11-26T00:35:17.839Z,6.01
2018-11-26T00:37:46.132Z,5.98
2018-11-26T00:40:15.011Z,5.98
2018-11-26T00:42:43.163Z,5.97
2018-11-26T00:45:12.231Z,5.96
2018-11-26T00:47:41.070Z,5.93
2018-11-26T00:50:10.034Z,5.91
2018-11-26T00:52:39.003Z,5.90
2018-11-26T00:55:09.332Z,5.76
2018-11-26T00:57:37.669Z,5.88
2018-11-26T01:00:09.368Z,5.84
2018-11-26T01:02:38.129Z,5.86
2018-11-26T01:05:07.243Z,5.86
2018-11-26T01:07:35.715Z,5.85
2018-11-26T01:10:04.952Z,5.82
2018-11-26T01:12:33.246Z,5.83
2018-11-26T01:15:01.677Z,5.83
2018-11-26T01:17:30.352Z,5.82
2018-11-26T01:19:58.692Z,5.81
2018-11-26T01:22:27.205Z,5.77
2018-11-26T01:24:55.867Z,5.76
2018-11-26T01:27:24.567Z,5.79
2018-11-26T01:29:52.873Z,5.80
2018-11-26T01:32:21.697Z,5.80
2018-11-26T01:34:50.229Z,5.78
2018-11-26T01:37:18.508Z,5.81
2018-11-26T01:39:47.362Z,5.82
2018-11-26T01:42:16.018Z,5.77
2018-11-26T01:44:44.113Z,5.79
2018-11-26T01:47:12.612Z,5.77
2018-11-26T01:49:41.012Z,5.75
2018-11-26T01:52:09.797Z,5.77
2018-11-26T01:54:38.053Z,5.78
2018-11-26T01:57:06.370Z,5.73
2018-11-26T01:59:35.066Z,5.75
2018-11-26T02:02:03.268Z,5.73
2018-11-26T02:04:31.578Z,5.72
2018-11-26T02:07:00.231Z,5.75
2018-11-26T02:09:28.903Z,5.74
2018-11-26T02:11:59.910Z,5.75
2018-11-26T02:14:28.745Z,5.74
2018-11-26T02:16:57.425Z,5.70
2018-11-26T02:19:26.132Z,5.73
2018-11-26T02:21:54.878Z,5.69
2018-11-26T02:24:23.441Z,5.73
2018-11-26T02:26:51.700Z,5.46
2018-11-26T02:29:20.791Z,5.76
2018-11-26T02:31:49.126Z,5.77
2018-11-26T02:34:17.957Z,5.77
2018-11-26T02:36:46.735Z,5.74
2018-11-26T02:39:15.174Z,5.73
2018-11-26T02:41:43.503Z,5.72
2018-11-26T02:44:12.283Z,5.71
2018-11-26T02:46:40.751Z,5.71
2018-11-26T02:49:09.122Z,5.69
2018-11-26T02:51:38.050Z,5.63
2018-11-26T02:54:06.293Z,5.67
2018-11-26T02:56:34.576Z,5.66
2018-11-26T02:59:03.473Z,5.67
2018-11-26T03:01:31.574Z,5.68
2018-11-26T03:04:00.032Z,5.70
2018-11-26T03:06:28.414Z,5.67
2018-11-26T03:08:56.574Z,5.66
2018-11-26T03:11:25.065Z,5.65
2018-11-26T03:13:53.890Z,5.66
2018-11-26T03:16:22.367Z,5.67
2018-11-26T03:18:50.682Z,5.64
2018-11-26T03:21:19.082Z,5.65
2018-11-26T03:23:47.438Z,5.64
2018-11-26T03:26:15.628Z,5.62
2018-11-26T03:28:44.382Z,5.49
2018-11-26T03:31:12.614Z,5.61
2018-11-26T03:36:15.589Z,5.58
2018-11-26T03:38:53.403Z,5.57
2018-11-26T03:41:22.870Z,5.58
2018-11-26T03:43:51.383Z,5.62
2018-11-26T03:46:19.942Z,5.66
2018-11-26T03:48:48.820Z,5.63
2018-11-26T03:51:19.113Z,5.62
2018-11-26T03:53:49.940Z,5.63
2018-11-26T03:56:21.324Z,5.62
2018-11-26T03:58:53.769Z,5.62
2018-11-26T04:01:24.471Z,5.62
2018-11-26T04:03:55.192Z,5.62
2018-11-26T04:06:24.054Z,5.11
2018-11-26T04:08:52.467Z,5.62
2018-11-26T04:11:23.430Z,5.63
2018-11-26T04:13:53.298Z,5.64
2018-11-26T04:16:22.846Z,5.62
2018-11-26T04:18:52.399Z,5.60
2018-11-26T04:21:20.993Z,5.59
2018-11-26T04:23:49.556Z,5.58
2018-11-26T04:26:17.743Z,5.09
2018-11-26T04:28:46.209Z,5.58
2018-11-26T04:31:14.514Z,5.58
2018-11-26T04:33:44.015Z,5.61
2018-11-26T04:36:13.024Z,5.63
2018-11-26T04:38:41.491Z,5.63
2018-11-26T04:41:09.672Z,5.61
2018-11-26T04:43:38.201Z,5.61
2018-11-26T04:46:07.276Z,5.62
2018-11-26T04:48:35.770Z,5.63
2018-11-26T04:51:04.507Z,5.62
2018-11-26T04:53:32.778Z,5.66
2018-11-26T04:56:01.191Z,5.67
2018-11-26T04:58:30.253Z,5.68
2018-11-26T05:00:58.650Z,5.69
2018-11-26T05:03:30.832Z,5.69
2018-11-26T05:06:02.949Z,5.69
2018-11-26T05:08:31.446Z,5.65
2018-11-26T05:11:03.020Z,5.62
2018-11-26T05:13:33.050Z,5.62
2018-11-26T05:16:01.360Z,5.61
2018-11-26T05:18:29.509Z,5.62
2018-11-26T05:20:58.531Z,5.65
2018-11-26T05:23:26.690Z,5.62
2018-11-26T05:25:55.351Z,5.59
2018-11-26T05:28:24.004Z,5.57
2018-11-26T05:30:52.131Z,5.53
2018-11-26T05:33:20.196Z,5.57
2018-11-26T05:35:48.976Z,5.55
2018-11-26T05:38:17.533Z,5.54
2018-11-26T05:40:47.405Z,5.56
2018-11-26T05:43:15.970Z,5.52
2018-11-26T05:45:45.241Z,5.51
2018-11-26T05:48:13.752Z,5.49
2018-11-26T05:50:42.539Z,5.50
2018-11-26T05:53:10.856Z,5.49
2018-11-26T05:55:39.453Z,5.46
2018-11-26T05:58:08.532Z,5.23
2018-11-26T06:00:38.259Z,5.32
2018-11-26T06:03:07.102Z,5.41
2018-11-26T06:05:35.791Z,5.25
2018-11-26T06:08:03.939Z,5.04
2018-11-26T06:10:32.483Z,5.36
2018-11-26T06:13:01.314Z,4.65
2018-11-26T06:15:30.490Z,5.21
2018-11-26T06:17:59.058Z,5.31
2018-11-26T06:20:27.306Z,4.93
2018-11-26T06:22:55.598Z,3.97
2018-11-26T06:25:24.843Z,5.30
2018-11-26T06:27:52.911Z,5.30
2018-11-26T06:30:21.278Z,4.58
2018-11-26T06:32:49.449Z,5.25
2018-11-26T06:35:20.626Z,5.22
2018-11-26T06:37:49.168Z,5.20
2018-11-26T06:40:17.624Z,5.19
2018-11-26T06:42:45.832Z,5.21
2018-11-26T06:45:16.742Z,5.19
2018-11-26T06:47:44.817Z,5.18
2018-11-26T06:50:15.478Z,5.16
2018-11-26T06:52:43.898Z,5.10
2018-11-26T06:55:13.285Z,5.07
2018-11-26T06:57:41.434Z,5.04
2018-11-26T07:00:12.492Z,5.03
2018-11-26T07:02:40.576Z,5.02
2018-11-26T07:05:14.055Z,5.00
2018-11-26T07:07:42.358Z,4.98
2018-11-26T07:10:11.280Z,4.99
2018-11-26T07:12:39.572Z,4.99
2018-11-26T07:15:12.409Z,4.99
2018-11-26T07:17:40.818Z,4.97
2018-11-26T07:20:10.856Z,4.96
2018-11-26T07:22:40.527Z,3.18
2018-11-26T07:25:10.411Z,4.85
2018-11-26T07:27:38.881Z,4.98
2018-11-26T07:30:16.099Z,4.97
2018-11-26T07:32:44.984Z,4.95
2018-11-26T07:35:13.747Z,4.96
2018-11-26T07:37:42.356Z,4.96
2018-11-26T07:40:15.660Z,4.95
2018-11-26T07:42:45.414Z,4.95
2018-11-26T07:45:14.373Z,4.93
2018-11-26T07:47:42.450Z,4.90
2018-11-26T07:50:13.006Z,4.88
2018-11-26T07:52:41.125Z,4.88
2018-11-26T07:55:11.177Z,4.84
2018-11-26T07:57:39.241Z,4.84
2018-11-26T08:00:11.406Z,4.80
2018-11-26T08:02:39.649Z,4.33
2018-11-26T08:05:09.239Z,4.79
2018-11-26T08:07:37.315Z,4.80
2018-11-26T08:10:11.247Z,4.77
2018-11-26T08:12:39.418Z,4.74
2018-11-26T08:15:12.974Z,4.72
2018-11-26T08:17:41.339Z,4.67
2018-11-26T08:20:11.045Z,4.68
2018-11-26T08:22:39.512Z,4.56
2018-11-26T08:25:10.908Z,4.69
2018-11-26T08:27:39.466Z,4.69
2018-11-26T08:30:12.211Z,4.67
2018-11-26T08:32:40.497Z,4.67
2018-11-26T08:35:09.824Z,4.61
2018-11-26T08:37:42.518Z,4.60
2018-11-26T08:40:11.697Z,4.61
2018-11-26T08:42:45.486Z,4.59
2018-11-26T08:45:20.211Z,4.55
2018-11-26T08:52:08.015Z,4.56
2018-11-26T08:54:36.394Z,4.50
2018-11-26T08:57:04.507Z,4.46
2018-11-26T08:59:33.129Z,4.45
2018-11-26T09:02:01.757Z,4.47
2018-11-26T09:04:33.837Z,4.36
2018-11-26T09:07:02.473Z,4.47
2018-11-26T09:09:32.988Z,4.45
2018-11-26T09:11:59.204Z,4.29
2018-11-26T09:14:27.970Z,4.44
2018-11-26T09:16:56.046Z,4.42
2018-11-26T09:19:24.137Z,4.38
2018-11-26T09:21:52.913Z,4.36
2018-11-26T09:24:21.214Z,4.35
2018-11-26T09:26:50.007Z,4.34
2018-11-26T09:29:18.894Z,3.04
2018-11-26T09:31:47.207Z,4.13
2018-11-26T09:34:15.675Z,4.28
2018-11-26T09:36:44.291Z,2.95
2018-11-26T09:39:13.019Z,3.88
2018-11-26T09:41:41.146Z,4.27
2018-11-26T09:44:09.274Z,4.26
2018-11-26T09:46:37.319Z,4.24
2018-11-26T09:49:06.155Z,4.23
2018-11-26T09:51:41.961Z,4.20
2018-11-26T09:54:02.751Z,4.23
2018-11-26T09:56:31.362Z,4.23
2018-11-26T09:58:59.803Z,4.23
2018-11-26T10:01:27.876Z,4.22
2018-11-26T10:03:55.951Z,3.77
2018-11-26T10:06:24.066Z,4.23
2018-11-26T10:08:52.190Z,4.22
2018-11-26T10:11:20.708Z,4.21
2018-11-26T10:13:48.929Z,4.20
2018-11-26T10:16:17.123Z,4.18
2018-11-26T10:18:45.176Z,4.17
2018-11-26T10:21:13.444Z,3.71
2018-11-26T10:23:41.803Z,4.14
2018-11-26T10:26:10.551Z,4.14
2018-11-26T10:28:38.937Z,4.15
2018-11-26T10:31:07.042Z,4.13
2018-11-26T10:33:35.528Z,4.05
2018-11-26T10:36:03.872Z,4.03
2018-11-26T10:38:32.542Z,4.00
2018-11-26T10:41:00.782Z,4.01
2018-11-26T10:43:29.293Z,4.03
2018-11-26T10:45:57.943Z,4.03
2018-11-26T10:48:26.347Z,3.74
2018-11-26T10:50:54.824Z,4.01
2018-11-26T10:53:23.294Z,4.02
2018-11-26T10:55:51.608Z,4.01
2018-11-26T10:58:19.977Z,4.02
2018-11-26T11:00:53.989Z,4.03
2018-11-26T11:03:22.326Z,3.86
2018-11-26T11:05:50.412Z,3.96
2018-11-26T11:08:18.942Z,3.94
2018-11-26T11:10:47.392Z,3.94
2018-11-26T11:13:15.735Z,3.92
2018-11-26T11:15:44.143Z,3.90
2018-11-26T11:18:12.289Z,3.85
2018-11-26T11:20:40.711Z,3.35
2018-11-26T11:23:09.561Z,3.84
2018-11-26T11:25:37.736Z,3.82
2018-11-26T11:28:06.270Z,3.82
2018-11-26T11:30:34.892Z,3.82
2018-11-26T11:35:31.071Z,3.78
2018-11-26T11:37:59.476Z,3.76
2018-11-26T11:40:29.912Z,3.74
2018-11-26T11:42:58.913Z,3.73
2018-11-26T11:45:28.089Z,3.75
2018-11-26T11:47:56.329Z,3.77
2018-11-26T11:50:24.420Z,3.71
2018-11-26T11:52:52.916Z,3.66
2018-11-26T11:55:22.049Z,3.63
2018-11-26T11:58:03.796Z,3.63
2018-11-26T12:00:36.178Z,3.65
2018-11-26T12:03:07.520Z,3.65
2018-11-26T12:05:35.997Z,3.60
2018-11-26T12:08:04.235Z,3.58
2018-11-26T12:10:32.793Z,3.58
2018-11-26T12:13:01.392Z,3.55
2018-11-26T12:15:29.683Z,3.55
2018-11-26T12:17:57.763Z,3.56
2018-11-26T12:20:26.292Z,3.54
2018-11-26T12:22:54.751Z,3.50
2018-11-26T12:25:22.923Z,3.46
2018-11-26T12:27:51.581Z,3.48
2018-11-26T12:30:21.896Z,3.34
2018-11-26T12:32:50.144Z,3.44
2018-11-26T12:35:18.717Z,3.45
2018-11-26T12:37:47.340Z,3.46
2018-11-26T12:40:21.766Z,3.47
2018-11-26T12:42:51.786Z,3.32
2018-11-26T12:45:23.020Z,3.46
2018-11-26T12:47:51.251Z,3.46
2018-11-26T12:50:19.887Z,3.46
2018-11-26T12:52:48.358Z,3.46
2018-11-26T12:55:18.781Z,3.48
2018-11-26T12:57:48.530Z,3.32
2018-11-26T13:00:18.906Z,3.42
2018-11-26T13:02:48.354Z,3.44
2018-11-26T13:05:17.391Z,3.45
2018-11-26T13:07:45.539Z,3.45
2018-11-26T13:10:15.172Z,3.41
2018-11-26T13:12:43.887Z,3.39
2018-11-26T13:15:15.739Z,3.38
2018-11-26T13:17:44.337Z,3.37
2018-11-26T13:20:16.431Z,3.37
2018-11-26T13:22:44.859Z,3.39
2018-11-26T13:25:14.817Z,3.37
2018-11-26T13:27:46.560Z,3.35
2018-11-26T13:30:19.976Z,3.31
2018-11-26T13:32:50.078Z,3.31
2018-11-26T13:35:19.317Z,3.31
2018-11-26T13:37:47.688Z,3.32
2018-11-26T13:40:16.551Z,3.36
2018-11-26T13:42:45.557Z,3.33
2018-11-26T13:45:16.044Z,3.29
2018-11-26T13:47:44.514Z,3.06
2018-11-26T13:50:18.216Z,3.31
2018-11-26T13:52:46.347Z,3.29
2018-11-26T13:55:15.372Z,3.13
2018-11-26T13:57:44.080Z,3.28
2018-11-26T14:00:14.096Z,3.29
2018-11-26T14:02:42.771Z,3.30
2018-11-26T14:05:12.235Z,3.30
2018-11-26T14:07:40.319Z,3.02
2018-11-26T14:10:16.081Z,3.28
2018-11-26T14:12:45.313Z,3.29
2018-11-26T14:15:16.688Z,3.14
2018-11-26T14:17:45.323Z,3.28
2018-11-26T14:20:14.741Z,3.27
2018-11-26T14:22:42.915Z,3.22
2018-11-26T14:25:13.802Z,3.21
2018-11-26T14:27:42.576Z,3.21
2018-11-26T14:30:21.271Z,3.23
2018-11-26T14:32:49.921Z,3.25
2018-11-26T14:35:18.305Z,3.25
2018-11-26T14:37:48.579Z,3.27
2018-11-26T14:40:24.163Z,3.28
2018-11-26T14:42:52.889Z,2.92
2018-11-26T14:45:21.401Z,3.29
2018-11-26T14:47:50.423Z,3.29
2018-11-26T14:50:17.992Z,3.31
2018-11-26T14:52:47.203Z,3.30
2018-11-26T14:55:20.292Z,3.30
2018-11-26T14:57:49.276Z,3.30
2018-11-26T15:00:18.252Z,3.31
2018-11-26T15:02:46.797Z,3.31
2018-11-26T15:05:15.428Z,3.31
2018-11-26T15:07:45.208Z,3.30
2018-11-26T15:10:15.479Z,3.29
2018-11-26T15:12:44.126Z,3.28
2018-11-26T15:15:16.156Z,3.28
2018-11-26T15:17:45.337Z,3.26
2018-11-26T15:20:15.402Z,3.22
2018-11-26T15:22:43.577Z,3.26
2018-11-26T15:25:14.040Z,3.25
2018-11-26T15:27:42.793Z,3.25
2018-11-26T15:30:13.726Z,3.22
2018-11-26T15:32:42.248Z,3.20
2018-11-26T15:35:12.539Z,3.19
2018-11-26T15:37:40.644Z,3.20
2018-11-26T15:40:10.739Z,2.95
2018-11-26T15:42:39.173Z,3.21
2018-11-26T15:45:12.002Z,3.23
2018-11-26T15:47:42.234Z,3.22
2018-11-26T15:50:11.492Z,2.75
2018-11-26T15:52:40.840Z,2.12
2018-11-26T15:55:14.010Z,3.23
2018-11-26T15:57:42.324Z,2.84
2018-11-26T16:00:14.439Z,3.23
2018-11-26T16:02:42.916Z,2.74
2018-11-26T16:05:12.336Z,3.19
2018-11-26T16:07:42.763Z,3.20
2018-11-26T16:10:12.473Z,3.22
2018-11-26T16:12:42.669Z,3.21
2018-11-26T16:15:14.164Z,3.21
2018-11-26T16:17:43.196Z,3.21
2018-11-26T16:20:16.749Z,3.09
2018-11-26T16:22:45.748Z,3.23
2018-11-26T16:25:16.091Z,3.24
2018-11-26T16:27:44.620Z,3.28
2018-11-26T16:30:18.077Z,2.61
2018-11-26T16:32:50.627Z,3.25
2018-11-26T16:35:25.184Z,3.19
2018-11-26T16:37:53.926Z,3.18
2018-11-26T16:40:23.133Z,3.17
2018-11-26T16:42:51.351Z,3.14
2018-11-26T16:45:23.472Z,3.10
2018-11-26T16:47:53.479Z,3.08
2018-11-26T16:50:28.286Z,3.06
2018-11-26T16:52:56.785Z,3.04
2018-11-26T16:55:24.939Z,3.02
2018-11-26T16:57:53.583Z,3.01
2018-11-26T17:00:23.223Z,3.01
2018-11-26T17:02:53.094Z,3.01
2018-11-26T17:05:24.757Z,3.00
2018-11-26T17:07:53.030Z,2.98
2018-11-26T17:10:21.296Z,2.99
2018-11-26T17:12:50.065Z,2.99
2018-11-26T17:15:18.570Z,3.01
2018-11-26T17:17:46.757Z,2.88
2018-11-26T17:20:16.021Z,3.04
2018-11-26T17:22:44.304Z,3.06
2018-11-26T17:25:14.403Z,3.08
2018-11-26T17:27:43.466Z,3.10
2018-11-26T17:30:13.903Z,3.13
2018-11-26T17:32:42.587Z,3.13
2018-11-26T17:35:12.760Z,3.14
2018-11-26T17:37:43.035Z,3.15
2018-11-26T17:40:12.572Z,2.63
2018-11-26T17:42:44.249Z,3.15
2018-11-26T17:45:13.313Z,3.16
2018-11-26T17:47:42.517Z,3.16
2018-11-26T17:50:43.544Z,3.15
2018-11-26T17:53:18.599Z,3.13
2018-11-26T17:55:50.796Z,3.14
2018-11-26T17:58:20.433Z,3.15
2018-11-26T18:00:52.700Z,2.77
2018-11-26T18:03:20.854Z,3.16
2018-11-26T18:05:48.988Z,2.91
2018-11-26T18:08:18.680Z,3.16
2018-11-26T18:10:46.850Z,3.16
2018-11-26T18:13:15.488Z,3.17
2018-11-26T18:15:43.809Z,3.17
2018-11-26T18:18:14.670Z,3.20
2018-11-26T18:20:42.848Z,3.21
2018-11-26T18:23:11.226Z,2.86
2018-11-26T18:25:39.683Z,3.25
2018-11-26T18:28:09.554Z,3.27
2018-11-26T18:30:45.715Z,3.27
2018-11-26T18:33:14.231Z,3.28
2018-11-26T18:35:42.721Z,3.30
2018-11-26T18:38:10.941Z,3.31
2018-11-26T18:40:40.197Z,3.33
2018-11-26T18:43:08.946Z,3.34
2018-11-26T18:45:38.854Z,3.35
2018-11-26T18:48:07.670Z,3.37
2018-11-26T18:50:35.843Z,3.37
2018-11-26T18:53:04.542Z,3.37
2018-11-26T18:55:32.689Z,3.38
2018-11-26T18:58:00.843Z,3.37
2018-11-26T19:00:30.557Z,3.37
2018-11-26T19:02:59.090Z,3.37
2018-11-26T19:05:27.461Z,3.38
2018-11-26T19:07:55.992Z,3.39
2018-11-26T19:10:27.220Z,3.11
2018-11-26T19:13:36.091Z,3.36
2018-11-26T19:16:11.669Z,3.38
2018-11-26T19:18:39.879Z,3.39
2018-11-26T19:21:08.065Z,3.39
2018-11-26T19:23:36.811Z,3.38
2018-11-26T19:26:05.057Z,3.38
2018-11-26T19:28:33.240Z,3.39
2018-11-26T19:31:01.579Z,3.38
2018-11-26T19:33:30.747Z,3.39
2018-11-26T19:35:58.958Z,3.40
2018-11-26T19:38:27.593Z,3.41
2018-11-26T19:40:55.787Z,3.41
2018-11-26T19:43:24.218Z,3.06
2018-11-26T19:45:52.548Z,3.45
2018-11-26T19:48:20.736Z,3.46
2018-11-26T19:50:48.822Z,3.45
2018-11-26T19:53:17.647Z,3.45
2018-11-26T19:55:45.768Z,3.46
2018-11-26T19:58:13.901Z,3.22
2018-11-26T20:00:42.470Z,3.46
2018-11-26T20:03:16.174Z,3.46
2018-11-26T20:06:19.520Z,3.46
2018-11-26T20:08:50.364Z,3.47
2018-11-26T20:11:18.564Z,3.47
2018-11-26T20:13:46.835Z,3.47
2018-11-26T20:16:17.413Z,3.45
2018-11-26T20:18:45.503Z,3.30
2018-11-26T20:21:13.664Z,3.42
2018-11-26T20:23:42.231Z,3.38
2018-11-26T20:26:10.385Z,3.38
2018-11-26T20:28:38.660Z,3.36
2018-11-26T20:31:07.892Z,3.34
2018-11-26T20:33:36.572Z,2.67
2018-11-26T20:36:04.802Z,3.32
2018-11-26T20:38:33.337Z,3.31
2018-11-26T20:41:01.603Z,3.31
2018-11-26T20:43:29.695Z,3.29
2018-11-26T20:45:57.943Z,3.29
2018-11-26T20:48:30.473Z,3.30
2018-11-26T20:50:54.413Z,3.29
2018-11-26T20:53:24.766Z,3.29
2018-11-26T20:55:53.097Z,3.01
2018-11-26T20:58:21.235Z,3.29
2018-11-26T21:00:50.102Z,3.28
2018-11-26T21:03:18.265Z,3.27
2018-11-26T21:05:46.617Z,3.27
2018-11-26T21:08:16.037Z,3.25
2018-11-26T21:10:44.515Z,3.23
2018-11-26T21:13:16.971Z,3.22
2018-11-26T21:15:41.768Z,3.22
2018-11-26T21:18:11.118Z,3.22
2018-11-26T21:20:47.132Z,3.23
2018-11-26T21:23:24.169Z,3.22
2018-11-26T21:25:52.589Z,2.82
2018-11-26T21:28:21.183Z,3.21
2018-11-26T21:30:52.243Z,2.96
2018-11-26T21:33:20.076Z,3.19
2018-11-26T21:35:48.610Z,3.18
2018-11-26T21:38:16.961Z,3.19
2018-11-26T21:40:45.256Z,3.18
2018-11-26T21:43:13.900Z,3.18
2018-11-26T21:45:53.213Z,3.18
2018-11-26T21:48:22.059Z,2.99
2018-11-26T21:50:50.325Z,3.17
2018-11-26T21:53:18.510Z,2.90
2018-11-26T21:55:47.180Z,3.16
2018-11-26T21:58:15.359Z,3.17
2018-11-26T22:00:43.991Z,3.17
2018-11-26T22:03:14.024Z,3.16
2018-11-26T22:05:43.261Z,3.14
2018-11-26T22:08:11.943Z,3.13
2018-11-26T22:10:41.568Z,2.61
2018-11-26T22:13:11.031Z,3.10
2018-11-26T22:15:39.225Z,3.09
2018-11-26T22:18:08.163Z,3.07
2018-11-26T22:20:36.600Z,3.06
2018-11-26T22:23:05.065Z,3.04
2018-11-26T22:25:33.603Z,3.02
2018-11-26T22:28:01.885Z,2.99
2018-11-26T22:30:31.693Z,2.95
2018-11-26T22:33:00.351Z,2.92
2018-11-26T22:35:28.597Z,2.91
2018-11-26T22:37:56.937Z,2.88
2018-11-26T22:40:26.190Z,2.91
2018-11-26T22:42:54.619Z,2.92
2018-11-26T22:45:28.137Z,2.93
2018-11-26T22:48:00.227Z,2.80
2018-11-26T22:50:28.395Z,2.92
2018-11-26T22:52:56.511Z,2.92
2018-11-26T22:55:24.945Z,2.90
2018-11-26T22:57:53.088Z,2.88
2018-11-26T23:00:24.917Z,2.86
2018-11-26T23:02:55.099Z,2.85
2018-11-26T23:05:23.480Z,2.83
2018-11-26T23:07:52.033Z,2.81
2018-11-26T23:10:20.205Z,2.82
2018-11-26T23:12:48.733Z,2.84
2018-11-26T23:15:17.615Z,2.82
2018-11-26T23:17:47.068Z,2.82
2018-11-26T23:20:16.644Z,2.82
2018-11-26T23:22:45.398Z,2.70
2018-11-26T23:25:16.536Z,2.82
2018-11-26T23:27:45.102Z,2.81
2018-11-26T23:30:17.560Z,2.81
2018-11-26T23:32:46.765Z,2.82
2018-11-26T23:35:15.391Z,2.83
2018-11-26T23:37:43.536Z,2.57
2018-11-26T23:40:13.036Z,2.82
2018-11-26T23:42:41.194Z,2.82
2018-11-26T23:45:11.466Z,2.83
2018-11-26T23:47:40.032Z,2.78
2018-11-26T23:50:10.429Z,2.41
2018-11-26T23:52:39.202Z,2.69
2018-11-26T23:55:08.713Z,2.78
2018-11-26T23:57:37.129Z,2.76
